77NY weather

Hut Haven Seaplane Base
Fair Haven, New York, United States

Public forecast

Using degrees Fahrenheit for public forecast. Weather courtesy of forecast.io.

METAR (pilot weather report)

Closest report is Oswego County Airport, 14.8 nm (27.4 km) E. Retrieved 2019/07/21 10:14 UTC (4 minutes ago):

KFZY 211014Z AUTO 27008G16KT 10SM SCT014 24/21 A2980 RMK AO2 T02390206

TAF (pilot weather forecast)

Closest forecast is Syracuse Hancock International Airport, 30.4 nm (56.2 km) ESE. Retrieved 2019/07/21 06:22 UTC (4 hours ago):

TAF KSYR 210520Z 2106/2206 VRB04KT P6SM SCT200 FM210900 27007KT P6SM BKN025 TEMPO 2113/2114 BKN035 FM211400 28013KT P6SM SCT050 FM212300 28003KT P6SM SCT200